createdAt,value
2023-06-16T00:00:02.571Z,17.36
2023-06-16T00:01:04.671Z,17.29
2023-06-16T00:02:04.123Z,17.28
2023-06-16T00:03:05.147Z,17.26
2023-06-16T00:04:05.628Z,17.25
2023-06-16T00:05:06.083Z,17.23
2023-06-16T00:06:07.677Z,17.23
2023-06-16T00:07:07.592Z,17.20
2023-06-16T00:08:09.192Z,17.20
2023-06-16T00:09:09.696Z,17.15
2023-06-16T00:10:09.602Z,17.11
2023-06-16T00:11:11.193Z,17.06
2023-06-16T00:12:11.078Z,17.00
2023-06-16T00:13:12.016Z,16.99
2023-06-16T00:14:12.887Z,16.98
2023-06-16T00:15:13.832Z,16.96
2023-06-16T00:16:14.753Z,16.93
2023-06-16T00:17:16.243Z,16.89
2023-06-16T00:18:16.158Z,16.86
2023-06-16T00:19:17.448Z,16.78
2023-06-16T00:20:19.866Z,16.78
2023-06-16T00:21:18.367Z,16.78
2023-06-16T00:22:19.287Z,16.75
2023-06-16T00:23:20.220Z,16.77
2023-06-16T00:24:21.213Z,16.77
2023-06-16T00:25:22.094Z,16.75
2023-06-16T00:26:23.033Z,16.74
2023-06-16T00:27:23.917Z,16.73
2023-06-16T00:28:24.862Z,16.74
2023-06-16T00:29:26.710Z,16.74
2023-06-16T00:30:26.595Z,16.70
2023-06-16T00:31:27.500Z,16.70
2023-06-16T00:32:28.433Z,16.71
2023-06-16T00:33:30.243Z,16.70
2023-06-16T00:34:30.135Z,16.70
2023-06-16T00:35:31.031Z,16.63
2023-06-16T00:36:31.942Z,16.59
2023-06-16T00:37:32.858Z,16.58
2023-06-16T00:38:33.784Z,16.50
2023-06-16T00:39:34.711Z,16.49
2023-06-16T00:40:35.606Z,16.48
2023-06-16T00:41:37.269Z,16.45
2023-06-16T00:42:37.222Z,16.45
2023-06-16T00:43:38.143Z,16.44
2023-06-16T00:44:39.052Z,16.42
2023-06-16T00:45:39.978Z,16.44
2023-06-16T00:46:40.905Z,16.49
2023-06-16T00:47:41.874Z,16.50
2023-06-16T00:48:42.765Z,16.50
2023-06-16T00:49:43.678Z,16.50
2023-06-16T00:50:45.186Z,16.52
2023-06-16T00:51:45.694Z,16.50
2023-06-16T00:52:46.169Z,16.55
2023-06-16T00:53:47.042Z,16.58
2023-06-16T00:54:47.940Z,16.62
2023-06-16T00:55:48.840Z,16.62
2023-06-16T00:56:49.771Z,16.62
2023-06-16T00:57:50.696Z,16.56
2023-06-16T00:58:51.632Z,16.52
2023-06-16T00:59:52.512Z,16.53
2023-06-16T01:00:53.434Z,16.55
2023-06-16T01:01:56.287Z,16.53
2023-06-16T01:02:55.241Z,16.53
2023-06-16T01:03:56.187Z,16.56
2023-06-16T01:04:56.616Z,16.55
2023-06-16T01:05:57.554Z,16.56
2023-06-16T01:06:58.487Z,16.56
2023-06-16T01:07:59.398Z,16.58
2023-06-16T01:09:00.315Z,16.59
2023-06-16T01:10:01.208Z,16.59
2023-06-16T01:11:03.719Z,16.56
2023-06-16T01:12:02.635Z,16.52
2023-06-16T01:13:03.513Z,16.50
2023-06-16T01:14:04.458Z,16.45
2023-06-16T01:15:05.367Z,16.48
2023-06-16T01:16:06.297Z,16.45
2023-06-16T01:17:07.277Z,16.49
2023-06-16T01:18:08.291Z,16.45
2023-06-16T01:19:08.793Z,16.44
2023-06-16T01:20:09.989Z,16.44
2023-06-16T01:21:10.435Z,16.40
2023-06-16T01:22:11.338Z,16.40
2023-06-16T01:23:12.252Z,16.37
2023-06-16T01:24:13.219Z,16.34
2023-06-16T01:25:14.136Z,16.31
2023-06-16T01:26:15.073Z,16.26
2023-06-16T01:27:15.962Z,16.22
2023-06-16T01:28:16.856Z,16.14
2023-06-16T01:29:17.808Z,16.11
2023-06-16T01:30:18.901Z,16.04
2023-06-16T01:31:19.387Z,16.03
2023-06-16T01:32:21.217Z,16.00
2023-06-16T01:33:21.107Z,15.99
2023-06-16T01:34:22.045Z,15.94
2023-06-16T01:35:22.954Z,15.93
2023-06-16T01:36:23.856Z,15.85
2023-06-16T01:37:24.767Z,15.82
2023-06-16T01:38:25.704Z,15.79
2023-06-16T01:39:28.233Z,15.72
2023-06-16T01:40:27.722Z,15.72
2023-06-16T01:41:28.130Z,15.67
2023-06-16T01:42:29.020Z,15.64
2023-06-16T01:43:30.716Z,15.64
2023-06-16T01:44:30.649Z,15.63
2023-06-16T01:45:31.563Z,15.61
2023-06-16T01:46:32.506Z,15.60
2023-06-16T01:47:33.622Z,15.57
2023-06-16T01:48:34.727Z,15.52
2023-06-16T01:49:34.610Z,15.48
2023-06-16T01:50:37.224Z,15.48
2023-06-16T01:51:36.726Z,15.46
2023-06-16T01:52:37.152Z,15.45
2023-06-16T01:53:38.747Z,15.43
2023-06-16T01:54:38.639Z,15.42
2023-06-16T01:55:39.567Z,15.39
2023-06-16T01:56:40.471Z,15.38
2023-06-16T01:57:42.222Z,15.38
2023-06-16T01:58:42.109Z,15.36
2023-06-16T01:59:43.059Z,15.31
2023-06-16T02:00:43.962Z,15.28
2023-06-16T02:01:44.882Z,15.26
2023-06-16T02:02:45.865Z,15.23
2023-06-16T02:03:47.834Z,15.21
2023-06-16T02:04:47.350Z,15.19
2023-06-16T02:05:50.242Z,15.15
2023-06-16T02:06:49.208Z,15.09
2023-06-16T02:07:50.119Z,15.06
2023-06-16T02:08:51.025Z,15.02
2023-06-16T02:09:51.932Z,15.02
2023-06-16T02:10:53.714Z,14.99
2023-06-16T02:11:53.661Z,14.95
2023-06-16T02:12:54.558Z,14.95
2023-06-16T02:13:55.473Z,14.95
2023-06-16T02:14:56.451Z,14.94
2023-06-16T02:15:57.377Z,14.93
2023-06-16T02:16:58.294Z,14.94
2023-06-16T02:17:59.252Z,14.93
2023-06-16T02:19:00.152Z,14.93
2023-06-16T02:20:01.075Z,14.91
2023-06-16T02:21:02.054Z,14.87
2023-06-16T02:22:02.917Z,14.87
2023-06-16T02:23:03.825Z,14.87
2023-06-16T02:24:04.792Z,14.83
2023-06-16T02:25:05.687Z,14.83
2023-06-16T02:26:06.587Z,14.81
2023-06-16T02:27:07.518Z,14.80
2023-06-16T02:28:09.230Z,14.72
2023-06-16T02:29:09.143Z,14.71
2023-06-16T02:30:10.097Z,14.68
2023-06-16T02:31:10.982Z,14.67
2023-06-16T02:32:11.892Z,14.64
2023-06-16T02:33:12.868Z,14.64
2023-06-16T02:34:13.767Z,14.62
2023-06-16T02:35:15.223Z,14.54
2023-06-16T02:36:15.636Z,14.53
2023-06-16T02:37:16.529Z,14.52
2023-06-16T02:38:17.452Z,14.50
2023-06-16T02:39:18.397Z,14.50
2023-06-16T02:40:19.520Z,14.47
2023-06-16T02:41:20.250Z,14.43
2023-06-16T02:42:21.159Z,14.42
2023-06-16T02:43:23.743Z,14.35
2023-06-16T02:44:22.654Z,14.35
2023-06-16T02:45:23.594Z,14.35
2023-06-16T02:46:24.489Z,14.34
2023-06-16T02:47:25.420Z,14.37
2023-06-16T02:48:27.224Z,14.37
2023-06-16T02:49:27.147Z,14.38
2023-06-16T02:50:28.097Z,14.34
2023-06-16T02:51:29.740Z,14.34
2023-06-16T02:52:29.642Z,14.34
2023-06-16T02:53:31.223Z,14.32
2023-06-16T02:54:31.188Z,14.29
2023-06-16T02:55:32.060Z,14.24
2023-06-16T02:56:32.979Z,14.20
2023-06-16T02:57:33.909Z,14.21
2023-06-16T02:58:35.763Z,14.24
2023-06-16T02:59:36.231Z,14.21
2023-06-16T03:00:36.676Z,14.24
2023-06-16T03:01:37.579Z,14.24
2023-06-16T03:02:39.465Z,14.24
2023-06-16T03:03:39.524Z,14.19
2023-06-16T03:04:40.761Z,14.17
2023-06-16T03:05:40.661Z,14.16
2023-06-16T03:06:41.596Z,14.14
2023-06-16T03:07:42.526Z,14.12
2023-06-16T03:08:43.456Z,14.13
2023-06-16T03:09:44.358Z,14.07
2023-06-16T03:10:46.224Z,14.06
2023-06-16T03:11:46.226Z,14.01
2023-06-16T03:12:47.144Z,14.01
2023-06-16T03:13:48.026Z,14.01
2023-06-16T03:14:48.933Z,14.01
2023-06-16T03:15:50.748Z,14.01
2023-06-16T03:16:50.695Z,13.98
2023-06-16T03:17:51.649Z,13.95
2023-06-16T03:18:52.554Z,13.95
2023-06-16T03:19:53.488Z,13.95
2023-06-16T03:20:54.388Z,13.94
2023-06-16T03:21:54.807Z,13.92
2023-06-16T03:22:55.724Z,13.89
2023-06-16T03:23:56.696Z,13.87
2023-06-16T03:24:57.787Z,13.88
2023-06-16T03:25:59.805Z,13.87
2023-06-16T03:26:58.756Z,13.84
2023-06-16T03:28:00.244Z,13.84
2023-06-16T03:29:00.164Z,13.84
2023-06-16T03:30:01.179Z,13.81
2023-06-16T03:31:01.654Z,13.80
2023-06-16T03:32:02.555Z,13.81
2023-06-16T03:33:03.574Z,13.84
2023-06-16T03:34:19.387Z,13.83
2023-06-16T03:35:06.236Z,13.83
2023-06-16T03:36:06.133Z,13.88
2023-06-16T03:37:07.030Z,13.87
2023-06-16T03:38:07.931Z,13.88
2023-06-16T03:39:09.746Z,13.88
2023-06-16T03:40:09.655Z,13.87
2023-06-16T03:41:10.578Z,13.89
2023-06-16T03:42:11.482Z,13.91
2023-06-16T03:43:12.393Z,13.92
2023-06-16T03:44:13.347Z,13.95
2023-06-16T03:45:15.252Z,13.95
2023-06-16T03:46:15.226Z,13.96
2023-06-16T03:47:16.161Z,13.99
2023-06-16T03:48:17.079Z,13.99
2023-06-16T03:49:17.992Z,14.02
2023-06-16T03:50:19.100Z,14.02
2023-06-16T03:51:19.604Z,14.02
2023-06-16T03:52:20.495Z,14.02
2023-06-16T03:53:21.485Z,14.02
2023-06-16T03:54:21.944Z,14.02
2023-06-16T03:55:22.848Z,14.01
2023-06-16T03:56:23.737Z,13.99
2023-06-16T03:57:24.646Z,13.96
2023-06-16T03:58:25.558Z,13.95
2023-06-16T03:59:26.485Z,13.95
2023-06-16T04:00:27.396Z,13.94
2023-06-16T04:01:28.339Z,13.94
2023-06-16T04:02:29.085Z,13.89
2023-06-16T04:03:29.612Z,13.88
2023-06-16T04:04:30.057Z,13.87
2023-06-16T04:05:31.052Z,13.87
2023-06-16T04:06:31.464Z,13.88
